createdAt,value
2022-12-08T05:02:33.490Z,1.30
2022-12-08T05:05:00.213Z,1.33
2022-12-08T05:07:26.741Z,1.77
2022-12-08T05:09:53.994Z,1.70
2022-12-08T05:12:20.815Z,1.60
2022-12-08T05:14:48.522Z,0.65
2022-12-08T05:17:19.097Z,0.80
2022-12-08T05:19:46.088Z,0.43
2022-12-08T05:22:13.061Z,0.65
2022-12-08T05:24:45.583Z,0.20
2022-12-08T05:27:14.587Z,0.40
2022-12-08T05:29:41.318Z,0.20
2022-12-08T05:32:09.327Z,0.20
2022-12-08T05:34:36.403Z,0.20
2022-12-08T05:37:03.853Z,0.30
2022-12-08T05:39:32.085Z,0.28
2022-12-08T05:41:59.814Z,0.50
2022-12-08T05:44:26.872Z,0.30
2022-12-08T05:46:53.870Z,0.40
2022-12-08T05:49:21.130Z,0.30
2022-12-08T05:51:48.912Z,0.43
2022-12-08T05:54:15.740Z,0.33
2022-12-08T05:56:42.349Z,0.55
2022-12-08T05:59:09.707Z,0.40
2022-12-08T06:01:37.054Z,0.40
2022-12-08T06:04:04.623Z,0.60
2022-12-08T06:06:34.415Z,0.50
2022-12-08T06:09:06.416Z,0.50
2022-12-08T06:11:33.770Z,0.65
2022-12-08T06:14:01.062Z,0.90
2022-12-08T06:16:29.162Z,0.70
2022-12-08T06:18:56.621Z,1.10
2022-12-08T06:21:23.875Z,0.77
2022-12-08T06:23:53.024Z,1.17
2022-12-08T06:26:20.861Z,1.30
2022-12-08T06:28:47.859Z,1.42
2022-12-08T06:31:28.429Z,1.13
2022-12-08T06:33:55.869Z,1.20
2022-12-08T06:36:26.007Z,2.38
2022-12-08T06:38:52.855Z,0.90
2022-12-08T06:41:20.132Z,0.60
2022-12-08T06:43:46.717Z,0.60
2022-12-08T06:46:19.098Z,0.63
2022-12-08T06:48:46.115Z,0.73
2022-12-08T06:51:15.974Z,0.57
2022-12-08T06:53:43.581Z,1.10
2022-12-08T06:56:11.822Z,0.70
2022-12-08T06:58:39.175Z,0.80
2022-12-08T07:01:13.473Z,1.00
2022-12-08T07:03:41.120Z,1.25
2022-12-08T07:06:09.319Z,0.80
2022-12-08T07:08:36.040Z,0.60
2022-12-08T07:11:16.696Z,0.80
2022-12-08T07:13:48.014Z,0.60
2022-12-08T07:16:14.743Z,0.45
2022-12-08T07:18:43.361Z,0.50
2022-12-08T07:21:12.504Z,0.20
2022-12-08T07:23:39.366Z,0.20
2022-12-08T07:26:08.490Z,0.20
2022-12-08T07:28:37.462Z,0.50
2022-12-08T07:31:05.244Z,0.63
2022-12-08T07:33:33.093Z,0.50
2022-12-08T07:36:04.805Z,1.15
2022-12-08T07:38:34.969Z,0.52
2022-12-08T07:41:02.351Z,0.63
2022-12-08T07:43:29.850Z,0.80
2022-12-08T07:45:56.653Z,0.80
2022-12-08T07:48:23.708Z,1.08
2022-12-08T07:50:50.482Z,1.20
2022-12-08T07:53:17.339Z,1.17
2022-12-08T07:55:44.647Z,0.95
2022-12-08T07:58:11.639Z,0.80
2022-12-08T08:00:38.727Z,0.95
2022-12-08T08:03:06.442Z,0.98
2022-12-08T08:05:33.642Z,1.08
2022-12-08T08:08:00.377Z,1.77
2022-12-08T08:10:27.640Z,1.40
2022-12-08T08:12:59.197Z,1.40
2022-12-08T08:15:26.634Z,1.20
2022-12-08T08:17:53.769Z,1.50
2022-12-08T08:20:21.561Z,1.00
2022-12-08T08:22:50.532Z,1.37
2022-12-08T08:25:18.203Z,1.50
2022-12-08T08:27:45.566Z,1.95
2022-12-08T08:30:18.347Z,1.63
2022-12-08T08:32:48.025Z,1.85
2022-12-08T08:35:14.854Z,1.90
2022-12-08T08:37:45.730Z,2.35
2022-12-08T08:40:15.326Z,2.40
2022-12-08T08:42:41.880Z,2.10
2022-12-08T08:45:09.051Z,2.50
2022-12-08T08:47:35.969Z,2.60
2022-12-08T08:50:03.251Z,2.83
2022-12-08T08:52:30.401Z,2.97
2022-12-08T08:54:57.156Z,2.70
2022-12-08T08:57:25.950Z,2.42
2022-12-08T08:59:53.771Z,2.83
2022-12-08T09:02:21.484Z,2.65
2022-12-08T09:04:48.280Z,3.35
2022-12-08T09:07:15.828Z,3.13
2022-12-08T09:09:42.520Z,3.20
2022-12-08T09:12:10.151Z,3.00
2022-12-08T09:14:36.996Z,3.70
2022-12-08T09:17:04.043Z,5.60
2022-12-08T09:19:30.739Z,4.03
2022-12-08T09:21:57.600Z,3.20
2022-12-08T09:24:24.598Z,1.60
2022-12-08T09:26:51.662Z,2.08
2022-12-08T09:29:18.491Z,2.17
2022-12-08T09:31:45.437Z,1.77
2022-12-08T09:34:12.724Z,2.70
2022-12-08T09:36:40.096Z,2.00
2022-12-08T09:39:07.428Z,2.10
2022-12-08T09:41:51.894Z,1.90
2022-12-08T09:44:38.923Z,1.88
2022-12-08T09:47:16.174Z,1.60
2022-12-08T09:49:47.926Z,1.63
2022-12-08T09:52:45.995Z,2.47
2022-12-08T09:55:21.041Z,2.00
2022-12-08T09:57:57.826Z,2.30
2022-12-08T10:00:24.954Z,3.15
2022-12-08T10:02:52.008Z,3.00
2022-12-08T10:05:18.809Z,4.15
2022-12-08T10:07:54.657Z,4.50
2022-12-08T10:10:46.868Z,4.57
2022-12-08T10:13:23.647Z,4.75
2022-12-08T10:16:01.306Z,4.27
2022-12-08T10:18:31.653Z,3.65
2022-12-08T10:21:14.426Z,2.70
2022-12-08T10:23:45.169Z,2.78
2022-12-08T10:26:15.075Z,2.67
2022-12-08T10:28:45.791Z,3.23
2022-12-08T10:31:21.812Z,3.97
2022-12-08T10:33:55.396Z,3.50
2022-12-08T10:36:22.328Z,3.10
2022-12-08T10:38:48.921Z,1.95
2022-12-08T10:41:19.979Z,1.00
2022-12-08T10:43:53.390Z,1.00
2022-12-08T10:46:26.024Z,1.08
2022-12-08T10:48:54.303Z,1.13
2022-12-08T10:51:42.107Z,0.80
2022-12-08T10:54:29.279Z,0.80
2022-12-08T10:56:58.153Z,1.00
2022-12-08T10:59:28.014Z,0.80
2022-12-08T11:01:56.826Z,0.82
2022-12-08T11:04:31.486Z,0.88
2022-12-08T11:06:58.496Z,0.70
2022-12-08T11:09:48.980Z,0.47
2022-12-08T11:12:16.558Z,0.50
2022-12-08T11:14:43.747Z,0.70
2022-12-08T11:17:27.961Z,1.65
2022-12-08T11:20:02.435Z,1.30
2022-12-08T11:22:29.522Z,1.10
2022-12-08T11:25:00.900Z,1.00
2022-12-08T11:27:27.673Z,1.05
2022-12-08T11:29:54.333Z,1.77
2022-12-08T11:32:22.453Z,1.17
2022-12-08T11:34:58.100Z,1.20
2022-12-08T11:38:08.118Z,1.33
2022-12-08T11:40:45.021Z,1.73
2022-12-08T11:43:26.573Z,2.13
2022-12-08T11:46:00.385Z,1.70
2022-12-08T11:48:45.941Z,3.60
2022-12-08T11:51:19.919Z,2.63
2022-12-08T11:53:49.698Z,2.28
2022-12-08T11:56:25.690Z,2.22
2022-12-08T11:58:57.948Z,1.63
2022-12-08T12:01:26.958Z,1.45
2022-12-08T12:04:18.405Z,1.42
2022-12-08T12:07:06.204Z,2.72
2022-12-08T12:09:50.746Z,2.10
2022-12-08T12:12:25.327Z,4.17
2022-12-08T12:15:13.809Z,1.60
2022-12-08T12:18:04.065Z,1.35
2022-12-08T12:20:39.858Z,1.67
2022-12-08T12:23:21.184Z,2.20
2022-12-08T12:26:01.023Z,2.43
2022-12-08T12:28:41.104Z,2.30
2022-12-08T12:31:12.607Z,1.40
2022-12-08T12:33:39.582Z,0.95
2022-12-08T12:36:09.809Z,1.40
2022-12-08T12:39:03.598Z,1.63
2022-12-08T12:41:43.223Z,3.30
2022-12-08T12:44:24.812Z,2.60
2022-12-08T12:46:51.829Z,1.67
2022-12-08T12:49:40.736Z,2.72
2022-12-08T12:52:11.982Z,3.10
2022-12-08T12:54:43.198Z,3.67
2022-12-08T12:57:10.112Z,1.63
2022-12-08T12:59:56.012Z,1.70
2022-12-08T13:02:36.314Z,10.65
2022-12-08T13:05:11.555Z,3.70
2022-12-08T13:08:01.002Z,5.60
2022-12-08T13:10:34.508Z,3.00
2022-12-08T13:13:17.936Z,4.57
2022-12-08T13:16:20.258Z,3.25
2022-12-08T13:18:49.703Z,3.77
2022-12-08T13:21:21.320Z,4.78
2022-12-08T13:24:14.922Z,3.72
2022-12-08T13:27:11.219Z,2.92
2022-12-08T13:29:39.250Z,3.30
2022-12-08T13:32:09.779Z,8.17
2022-12-08T13:35:00.083Z,3.83
2022-12-08T13:37:54.615Z,3.80
2022-12-08T13:40:27.448Z,4.50
2022-12-08T13:43:18.334Z,3.97
2022-12-08T13:50:49.572Z,3.40
2022-12-08T13:56:05.408Z,3.00
2022-12-08T13:57:34.952Z,3.47
2022-12-08T14:00:08.742Z,3.23
2022-12-08T14:02:42.257Z,3.90
2022-12-08T14:05:19.407Z,4.50
2022-12-08T14:07:49.956Z,4.80
2022-12-08T14:10:22.466Z,5.90
2022-12-08T14:13:01.425Z,6.57
2022-12-08T14:15:37.163Z,6.25
2022-12-08T14:18:07.298Z,5.03
2022-12-08T14:20:57.883Z,5.03
2022-12-08T14:23:22.478Z,6.43
2022-12-08T14:25:49.469Z,5.00
2022-12-08T14:28:16.892Z,4.32
2022-12-08T14:30:43.828Z,3.80
2022-12-08T14:33:17.229Z,3.60
2022-12-08T14:35:51.237Z,2.92
2022-12-08T14:38:24.694Z,2.83
2022-12-08T14:41:04.477Z,3.00
2022-12-08T14:43:32.043Z,3.40
2022-12-08T14:46:19.884Z,3.20
2022-12-08T14:48:47.213Z,3.28
2022-12-08T14:51:19.617Z,3.17
2022-12-08T14:54:09.039Z,3.30
2022-12-08T14:56:52.339Z,3.05
2022-12-08T14:59:36.692Z,2.15
2022-12-08T15:02:14.345Z,2.60
2022-12-08T15:04:47.798Z,2.50
2022-12-08T15:07:18.444Z,2.28
2022-12-08T15:09:49.230Z,3.90
2022-12-08T15:12:26.176Z,4.80
2022-12-08T15:15:17.720Z,2.33
2022-12-08T15:18:01.032Z,2.40
2022-12-08T15:20:44.227Z,1.60
2022-12-08T15:23:38.543Z,2.33
2022-12-08T15:26:05.863Z,2.28
2022-12-08T15:28:33.017Z,2.53
2022-12-08T15:31:00.351Z,2.90
2022-12-08T15:33:27.654Z,2.88
2022-12-08T15:35:54.531Z,2.50
2022-12-08T15:38:26.763Z,2.90
2022-12-08T15:40:54.970Z,8.82
2022-12-08T15:43:22.730Z,6.10
2022-12-08T15:45:59.031Z,3.30
2022-12-08T15:48:29.641Z,8.48
2022-12-08T15:50:57.448Z,7.15
2022-12-08T15:53:24.428Z,2.47
2022-12-08T15:56:26.414Z,2.00
2022-12-08T15:58:53.426Z,4.32
2022-12-08T16:01:22.199Z,2.10
2022-12-08T16:07:19.658Z,2.30
2022-12-08T16:09:32.427Z,3.57
2022-12-08T16:12:18.341Z,1.95
2022-12-08T16:17:32.691Z,4.90
2022-12-08T16:20:00.110Z,3.60
2022-12-08T16:25:22.978Z,3.90
2022-12-08T16:28:08.262Z,4.60
2022-12-08T16:30:39.683Z,4.53
2022-12-08T16:33:06.938Z,5.40
2022-12-08T16:35:33.946Z,5.57
2022-12-08T16:38:00.993Z,5.28
2022-12-08T16:40:28.117Z,5.18
2022-12-08T16:42:55.161Z,5.28
2022-12-08T16:45:28.223Z,5.63
2022-12-08T16:47:58.164Z,6.60
2022-12-08T16:50:29.566Z,5.20
2022-12-08T16:53:04.880Z,4.82
2022-12-08T16:55:32.674Z,5.22
2022-12-08T16:58:04.468Z,6.70
2022-12-08T17:00:37.127Z,5.47
2022-12-08T17:03:05.919Z,5.15
2022-12-08T17:05:32.594Z,5.78
2022-12-08T17:08:00.102Z,5.53
2022-12-08T17:10:32.344Z,6.22
2022-12-08T17:12:59.329Z,5.40
2022-12-08T17:15:42.968Z,6.05
2022-12-08T17:18:09.944Z,6.03
2022-12-08T17:20:37.423Z,7.00
2022-12-08T17:23:09.478Z,9.52
2022-12-08T17:25:42.723Z,8.30
2022-12-08T17:28:09.947Z,7.85
2022-12-08T17:30:37.208Z,8.20
2022-12-08T17:33:04.317Z,6.20
2022-12-08T17:35:31.566Z,7.55
2022-12-08T17:37:58.167Z,9.77
2022-12-08T17:40:28.247Z,9.15
2022-12-08T17:42:55.663Z,7.97
2022-12-08T17:45:22.500Z,7.90
2022-12-08T17:47:49.443Z,12.30
2022-12-08T17:50:16.613Z,10.77
2022-12-08T17:52:43.463Z,8.30
2022-12-08T17:55:11.286Z,11.77
2022-12-08T17:57:38.116Z,23.13
2022-12-08T18:00:06.028Z,12.05
2022-12-08T18:02:33.929Z,19.47
2022-12-08T18:05:00.589Z,12.38
2022-12-08T18:07:27.394Z,23.48
2022-12-08T18:09:56.837Z,15.38
2022-12-08T18:12:24.085Z,11.93
2022-12-08T18:14:52.476Z,14.07
2022-12-08T18:17:19.454Z,12.35
2022-12-08T18:19:55.734Z,14.35
2022-12-08T18:22:22.491Z,12.43
2022-12-08T18:24:49.311Z,13.65
2022-12-08T18:27:15.955Z,13.77
2022-12-08T18:29:43.186Z,12.70
2022-12-08T18:32:09.885Z,14.05
2022-12-08T18:34:36.796Z,13.90
2022-12-08T18:37:04.081Z,12.77
2022-12-08T18:39:32.936Z,13.53
2022-12-08T18:42:02.772Z,25.17
2022-12-08T18:44:30.661Z,17.30
2022-12-08T18:46:57.327Z,17.48
2022-12-08T18:49:24.428Z,17.98
2022-12-08T18:51:51.328Z,18.17
2022-12-08T18:54:18.068Z,16.98
2022-12-08T18:56:45.078Z,14.80
2022-12-08T18:59:12.451Z,15.70
2022-12-08T19:01:40.991Z,14.32
2022-12-08T19:04:27.897Z,14.83
2022-12-08T19:06:56.642Z,15.77
2022-12-08T19:09:24.612Z,16.15
2022-12-08T19:11:51.300Z,16.08
2022-12-08T19:14:22.608Z,14.98
2022-12-08T19:16:52.491Z,14.23
2022-12-08T19:19:19.613Z,13.68
2022-12-08T19:21:46.880Z,13.93
2022-12-08T19:24:13.797Z,13.82
2022-12-08T19:26:40.945Z,14.50
2022-12-08T19:29:07.715Z,13.47
2022-12-08T19:31:34.389Z,12.05
2022-12-08T19:34:01.677Z,12.00
2022-12-08T19:36:31.802Z,12.07
2022-12-08T19:39:17.299Z,11.02
2022-12-08T19:42:03.014Z,11.83
2022-12-08T19:44:49.282Z,10.82
2022-12-08T19:47:16.217Z,10.57
2022-12-08T19:49:44.097Z,11.70
2022-12-08T19:52:11.087Z,11.90
2022-12-08T19:54:40.726Z,11.93
2022-12-08T19:57:07.362Z,12.15
2022-12-08T19:59:34.520Z,12.63
2022-12-08T20:02:01.728Z,11.13
2022-12-08T20:04:29.041Z,11.35
2022-12-08T20:06:57.729Z,11.30
2022-12-08T20:09:25.104Z,10.88
2022-12-08T20:11:54.997Z,11.55
2022-12-08T20:14:23.409Z,10.35
2022-12-08T20:16:51.234Z,9.98
2022-12-08T20:19:18.758Z,9.10
2022-12-08T20:21:45.436Z,9.80
2022-12-08T20:24:12.128Z,8.75
2022-12-08T20:26:38.934Z,8.38
2022-12-08T20:29:06.689Z,8.15
2022-12-08T20:31:34.311Z,8.03
2022-12-08T20:34:01.185Z,8.98
2022-12-08T20:36:28.872Z,10.18
2022-12-08T20:38:56.549Z,12.13
2022-12-08T20:41:23.847Z,8.68
2022-12-08T20:43:51.670Z,8.07
2022-12-08T20:46:20.094Z,7.70
2022-12-08T20:48:47.871Z,7.22
2022-12-08T20:51:20.282Z,6.70
2022-12-08T20:53:47.522Z,6.47
2022-12-08T20:56:19.425Z,6.97
2022-12-08T20:58:47.078Z,6.97
2022-12-08T21:01:16.522Z,6.68
2022-12-08T21:03:45.593Z,6.70
2022-12-08T21:06:13.067Z,6.78
2022-12-08T21:08:40.796Z,10.60
2022-12-08T21:11:08.607Z,8.38
2022-12-08T21:13:37.705Z,7.03
2022-12-08T21:16:05.505Z,7.72
2022-12-08T21:18:38.985Z,7.68
2022-12-08T21:21:12.613Z,6.67
2022-12-08T21:23:40.223Z,7.85
2022-12-08T21:26:13.429Z,8.52
2022-12-08T21:28:40.662Z,8.40
2022-12-08T21:31:09.876Z,8.50
2022-12-08T21:33:37.243Z,8.53
2022-12-08T21:36:09.057Z,8.25
2022-12-08T21:38:37.508Z,8.52
2022-12-08T21:41:06.095Z,8.10
2022-12-08T21:43:33.532Z,8.88
2022-12-08T21:46:01.417Z,8.60
2022-12-08T21:48:28.636Z,8.40
2022-12-08T21:50:57.124Z,7.95
2022-12-08T21:53:26.588Z,8.55
2022-12-08T21:55:53.515Z,8.48
2022-12-08T21:58:20.397Z,8.03
2022-12-08T22:00:47.269Z,8.43
2022-12-08T22:03:15.476Z,8.65
2022-12-08T22:05:42.832Z,8.30
2022-12-08T22:08:09.672Z,8.25
